Time;durP1;ratioP1;P1;durP2;ratioP2;P2;SDS_P1;SDS_P2;PMS_P1;PMS_P2;Temp;Humidity;BMP_temperature;BMP_pressure;BME280_temperature;BME280_humidity;BME280_pressure;Samples;Min_cycle;Max_cycle;Signal;HPM_P1;HPM_P2
2023/04/07 00:01:41;;;;;;;7.30;2.08;;;12.60;99.90;;;;;;5079165;28;20405;-75
2023/04/07 00:04:07;;;;;;;8.97;2.13;;;12.60;99.90;;;;;;5075218;28;20427;-76
2023/04/07 00:06:34;;;;;;;8.23;1.90;;;12.60;99.90;;;;;;5081657;28;20399;-75
2023/04/07 00:09:00;;;;;;;6.80;2.28;;;12.50;99.90;;;;;;5081796;28;20423;-75
2023/04/07 00:11:27;;;;;;;8.60;2.10;;;12.40;99.90;;;;;;5089334;28;20408;-76
2023/04/07 00:13:53;;;;;;;8.88;2.05;;;12.40;99.90;;;;;;5080873;28;20407;-76
2023/04/07 00:16:19;;;;;;;7.15;2.00;;;12.40;99.90;;;;;;5081485;28;20410;-75
2023/04/07 00:18:48;;;;;;;7.75;2.08;;;12.40;99.90;;;;;;5084481;28;21019;-76
2023/04/07 00:21:14;;;;;;;6.53;1.93;;;12.50;99.90;;;;;;5110027;27;20416;-76
2023/04/07 00:23:41;;;;;;;6.95;1.88;;;12.60;99.90;;;;;;5078036;28;21369;-75
2023/04/07 00:26:07;;;;;;;10.52;2.03;;;12.60;99.90;;;;;;5106435;27;20902;-76
2023/04/07 00:28:34;;;;;;;6.93;2.08;;;12.50;99.90;;;;;;5073901;28;20423;-75
2023/04/07 00:31:00;;;;;;;7.90;1.90;;;12.50;99.90;;;;;;5081096;28;20404;-75
2023/04/07 00:33:26;;;;;;;5.45;1.70;;;12.50;99.90;;;;;;5078920;28;20418;-75
2023/04/07 00:35:53;;;;;;;10.32;2.25;;;12.40;99.90;;;;;;5078383;28;20442;-75
2023/04/07 00:38:19;;;;;;;6.30;1.98;;;12.40;99.90;;;;;;5052975;28;20406;-75
2023/04/07 00:40:45;;;;;;;10.27;2.40;;;12.30;99.90;;;;;;5076129;28;20987;-75
2023/04/07 00:43:11;;;;;;;7.43;1.85;;;12.40;99.90;;;;;;5074863;28;20930;-76
2023/04/07 00:45:41;;;;;;;7.03;1.70;;;12.30;99.90;;;;;;5073040;28;20956;-76
2023/04/07 00:48:09;;;;;;;6.40;1.80;;;12.30;99.90;;;;;;5072032;28;20889;-75
2023/04/07 00:50:35;;;;;;;9.10;1.95;;;12.40;99.90;;;;;;5075038;28;20410;-75
2023/04/07 00:53:01;;;;;;;6.78;1.83;;;12.30;99.90;;;;;;5074596;28;20395;-75
2023/04/07 00:55:28;;;;;;;6.18;1.70;;;12.30;99.90;;;;;;5104475;27;20657;-75
2023/04/07 00:57:54;;;;;;;4.13;1.30;;;12.10;99.90;;;;;;5105586;27;20403;-75
2023/04/07 01:00:20;;;;;;;5.75;1.85;;;12.00;99.90;;;;;;5062273;28;20498;-75
2023/04/07 01:03:17;;;;;;;5.13;1.70;;;12.00;99.90;;;;;;5084810;28;20412;-75
2023/04/07 01:05:57;;;;;;;5.75;1.63;;;11.90;99.90;;;;;;5078122;28;20443;-76
2023/04/07 01:08:46;;;;;;;6.07;1.80;;;11.70;99.90;;;;;;5072154;28;20416;-75
2023/04/07 01:11:35;;;;;;;7.18;1.70;;;11.70;99.90;;;;;;5060234;28;21068;-76
2023/04/07 01:14:03;;;;;;;6.13;1.77;;;11.70;99.90;;;;;;5063921;28;20460;-75
2023/04/07 01:16:49;;;;;;;6.53;1.70;;;11.70;99.90;;;;;;5055890;28;20488;-75
2023/04/07 01:19:38;;;;;;;6.65;1.65;;;11.60;99.90;;;;;;5073409;28;20406;-75
2023/04/07 01:22:14;;;;;;;5.30;1.73;;;11.70;99.90;;;;;;5092398;28;20847;-76
2023/04/07 01:25:14;;;;;;;7.93;1.65;;;11.70;99.90;;;;;;5074721;28;20418;-75
2023/04/07 01:28:02;;;;;;;5.97;1.50;;;11.70;99.90;;;;;;5072748;28;20419;-75
2023/04/07 01:30:33;;;;;;;5.72;1.42;;;11.70;99.90;;;;;;5072580;28;21242;-75
2023/04/07 01:33:01;;;;;;;6.75;1.88;;;11.50;99.90;;;;;;5078149;28;21137;-76
2023/04/07 01:35:32;;;;;;;5.65;1.65;;;11.50;99.90;;;;;;5076726;28;20406;-75
2023/04/07 01:38:00;;;;;;;5.20;1.50;;;11.40;99.90;;;;;;5091221;28;20421;-76
2023/04/07 01:40:29;;;;;;;7.15;1.63;;;11.50;99.90;;;;;;5070944;28;20421;-76
2023/04/07 01:42:58;;;;;;;5.60;1.73;;;11.60;99.90;;;;;;5078774;28;20420;-75
2023/04/07 01:45:27;;;;;;;6.22;1.77;;;11.60;99.90;;;;;;5103174;28;20406;-75
2023/04/07 01:47:54;;;;;;;8.25;1.85;;;11.80;99.90;;;;;;5072143;28;20461;-75
2023/04/07 01:50:23;;;;;;;4.22;1.40;;;11.80;99.90;;;;;;5074632;28;20751;-74
2023/04/07 01:52:51;;;;;;;4.70;1.48;;;11.80;99.90;;;;;;5069186;28;20423;-74
2023/04/07 01:55:17;;;;;;;6.15;1.73;;;11.70;99.90;;;;;;5071835;28;20406;-74
2023/04/07 01:57:43;;;;;;;5.97;1.73;;;11.60;99.90;;;;;;5078770;28;20802;-74
2023/04/07 02:00:10;;;;;;;5.47;1.70;;;11.70;99.90;;;;;;5084990;28;20853;-74
2023/04/07 02:02:43;;;;;;;5.03;1.60;;;11.80;99.90;;;;;;5087015;28;20471;-74
2023/04/07 02:05:18;;;;;;;3.67;1.60;;;11.80;99.90;;;;;;5110725;27;20410;-74
2023/04/07 02:08:04;;;;;;;5.68;1.73;;;11.70;99.90;;;;;;5079751;28;20474;-74
2023/04/07 02:10:37;;;;;;;4.63;1.58;;;11.60;99.90;;;;;;5077113;28;20460;-74
2023/04/07 02:13:07;;;;;;;4.57;1.60;;;11.60;99.90;;;;;;5078578;28;20412;-74
2023/04/07 02:15:36;;;;;;;5.83;1.60;;;11.60;99.90;;;;;;5079201;28;20412;-74
2023/04/07 02:18:05;;;;;;;4.70;1.50;;;11.70;99.90;;;;;;5080498;28;21382;-74
2023/04/07 02:20:33;;;;;;;5.90;1.60;;;11.60;99.90;;;;;;5078216;28;22267;-74
2023/04/07 02:23:00;;;;;;;5.22;1.50;;;11.60;99.90;;;;;;5077312;28;20432;-74
2023/04/07 02:25:31;;;;;;;5.65;1.60;;;11.50;99.90;;;;;;5055006;28;20412;-74
2023/04/07 02:28:00;;;;;;;6.67;1.77;;;11.40;99.90;;;;;;5105973;27;20947;-74
2023/04/07 02:30:27;;;;;;;5.25;1.60;;;11.40;99.90;;;;;;5058776;28;20419;-74
2023/04/07 02:32:54;;;;;;;5.83;1.60;;;11.50;99.90;;;;;;5079974;28;20786;-74
2023/04/07 02:35:20;;;;;;;4.33;1.30;;;11.50;99.90;;;;;;5079431;28;20433;-74
2023/04/07 02:37:47;;;;;;;5.38;1.50;;;11.40;99.90;;;;;;5076527;28;20984;-74
2023/04/07 02:40:13;;;;;;;4.47;1.40;;;11.30;99.90;;;;;;5108247;27;20497;-74
2023/04/07 02:42:40;;;;;;;5.43;1.60;;;11.20;99.90;;;;;;5080155;28;20992;-74
2023/04/07 02:45:09;;;;;;;5.80;1.80;;;11.20;99.90;;;;;;5081122;28;20417;-74
2023/04/07 02:47:37;;;;;;;3.95;1.38;;;11.30;99.90;;;;;;5074275;28;20438;-74
2023/04/07 02:50:04;;;;;;;4.65;1.60;;;11.30;99.90;;;;;;5080034;28;20899;-74
2023/04/07 02:52:31;;;;;;;4.47;1.50;;;11.20;99.90;;;;;;5091089;27;20408;-74
2023/04/07 02:54:57;;;;;;;3.00;1.27;;;11.10;99.90;;;;;;5109647;27;21052;-74
2023/04/07 02:57:23;;;;;;;4.82;1.52;;;11.10;99.90;;;;;;5089277;27;20514;-74
2023/04/07 02:59:49;;;;;;;5.03;1.70;;;11.00;99.90;;;;;;5077110;28;20422;-74
2023/04/07 03:02:16;;;;;;;7.13;1.80;;;10.90;99.90;;;;;;5080499;28;20527;-74
2023/04/07 03:04:42;;;;;;;5.67;1.40;;;10.70;99.90;;;;;;5093774;27;20512;-74
2023/04/07 03:07:08;;;;;;;5.00;1.60;;;10.70;99.90;;;;;;5071923;28;20419;-74
2023/04/07 03:09:34;;;;;;;3.60;1.50;;;10.60;99.90;;;;;;5078622;28;20936;-74
2023/04/07 03:12:01;;;;;;;4.93;1.60;;;10.40;99.90;;;;;;5083795;28;20972;-74
2023/04/07 03:14:27;;;;;;;6.63;1.65;;;10.30;99.90;;;;;;5071995;28;20408;-74
2023/04/07 03:16:53;;;;;;;6.18;1.55;;;10.20;99.90;;;;;;5075547;28;21286;-74
2023/04/07 03:19:19;;;;;;;6.57;1.50;;;10.20;99.90;;;;;;5076444;28;20502;-74
2023/04/07 03:21:46;;;;;;;6.13;1.65;;;10.30;99.90;;;;;;5075790;28;20444;-74
2023/04/07 03:24:12;;;;;;;5.25;1.48;;;10.30;99.90;;;;;;5076279;28;20494;-74
2023/04/07 03:26:38;;;;;;;5.47;1.50;;;10.30;99.90;;;;;;5076205;28;20432;-74
2023/04/07 03:29:04;;;;;;;3.20;1.30;;;10.20;99.90;;;;;;5078406;28;20509;-74
2023/04/07 03:31:30;;;;;;;5.78;1.83;;;10.10;99.90;;;;;;5103399;27;20511;-74
2023/04/07 03:33:57;;;;;;;5.10;1.50;;;10.10;99.90;;;;;;5106324;27;20422;-74
2023/04/07 03:36:23;;;;;;;6.22;1.45;;;10.10;99.90;;;;;;5075534;28;20986;-74
2023/04/07 03:38:49;;;;;;;9.32;1.80;;;10.00;99.90;;;;;;5077441;28;20938;-74
2023/04/07 03:41:15;;;;;;;5.43;1.57;;;10.00;99.90;;;;;;5082056;28;20402;-74
2023/04/07 03:43:42;;;;;;;5.68;1.75;;;10.10;99.90;;;;;;5084745;28;20522;-73
2023/04/07 03:46:08;;;;;;;4.88;1.50;;;10.10;99.90;;;;;;5093940;28;20410;-74
2023/04/07 03:48:34;;;;;;;4.65;1.38;;;10.10;99.90;;;;;;5075001;28;20546;-74
2023/04/07 03:51:00;;;;;;;5.38;1.48;;;10.10;99.90;;;;;;5077206;28;20478;-74
2023/04/07 03:53:26;;;;;;;6.18;1.63;;;10.10;99.90;;;;;;5074296;28;20430;-74
2023/04/07 03:55:53;;;;;;;5.53;1.75;;;10.20;99.90;;;;;;5076776;28;20477;-74
2023/04/07 03:58:19;;;;;;;4.57;1.55;;;10.10;99.90;;;;;;5078525;28;20479;-74
2023/04/07 04:00:45;;;;;;;7.65;1.70;;;10.10;99.90;;;;;;5081942;28;20472;-74
2023/04/07 04:03:11;;;;;;;5.63;1.60;;;10.20;99.90;;;;;;5108864;27;20564;-74
2023/04/07 04:05:39;;;;;;;5.47;1.50;;;10.20;99.90;;;;;;5076310;28;21074;-74
2023/04/07 04:08:05;;;;;;;6.15;1.60;;;10.20;99.90;;;;;;5079969;28;20481;-74
2023/04/07 04:10:32;;;;;;;5.95;1.75;;;10.20;99.90;;;;;;5079475;28;20916;-74
2023/04/07 04:13:02;;;;;;;4.00;1.60;;;10.30;99.90;;;;;;5080868;28;20920;-74
2023/04/07 04:15:28;;;;;;;6.15;1.70;;;10.30;99.90;;;;;;5076063;28;20409;-74
2023/04/07 04:17:54;;;;;;;5.03;1.52;;;10.30;99.90;;;;;;5103653;27;20992;-74
2023/04/07 04:20:21;;;;;;;5.32;1.67;;;10.30;99.90;;;;;;5078656;28;20410;-74
2023/04/07 04:22:47;;;;;;;6.00;1.52;;;10.30;99.90;;;;;;5103350;27;20424;-74
2023/04/07 04:25:16;;;;;;;5.57;1.75;;;10.40;99.90;;;;;;5077468;28;20422;-74
2023/04/07 04:27:42;;;;;;;4.72;1.70;;;10.40;99.90;;;;;;5074575;28;20448;-74
2023/04/07 04:30:09;;;;;;;5.28;1.83;;;10.40;99.90;;;;;;5078881;28;20780;-74
2023/04/07 04:32:35;;;;;;;4.72;1.60;;;10.40;99.90;;;;;;5090470;28;20439;-74
2023/04/07 04:35:01;;;;;;;4.67;1.60;;;10.50;99.90;;;;;;5079295;28;20484;-74
2023/04/07 04:37:28;;;;;;;7.13;1.70;;;10.50;99.90;;;;;;5073477;28;20451;-74
2023/04/07 04:39:54;;;;;;;6.13;1.70;;;10.50;99.90;;;;;;5085522;28;21194;-74
2023/04/07 04:42:20;;;;;;;6.45;1.63;;;10.60;99.90;;;;;;5063991;28;20401;-74
2023/04/07 04:44:46;;;;;;;6.90;1.70;;;10.70;99.90;;;;;;5058014;28;20423;-74
2023/04/07 04:47:12;;;;;;;8.32;1.85;;;10.70;99.90;;;;;;5079195;28;20453;-74
2023/04/07 04:49:39;;;;;;;7.90;1.93;;;10.80;99.90;;;;;;5076470;28;20961;-74
2023/04/07 04:52:05;;;;;;;8.43;1.75;;;10.80;99.90;;;;;;5083870;28;20425;-74
2023/04/07 04:54:32;;;;;;;6.38;2.00;;;10.90;99.90;;;;;;5073546;28;20530;-74
2023/04/07 04:56:58;;;;;;;4.30;1.65;;;11.00;99.90;;;;;;5057736;28;20420;-74
2023/04/07 04:59:25;;;;;;;7.37;1.90;;;11.10;99.90;;;;;;5074755;28;20511;-74
2023/04/07 05:01:51;;;;;;;6.72;2.03;;;11.10;99.90;;;;;;5073920;28;20415;-74
2023/04/07 05:04:18;;;;;;;6.30;1.50;;;11.20;99.90;;;;;;5104306;27;20586;-74
2023/04/07 05:06:44;;;;;;;7.20;1.83;;;11.30;99.90;;;;;;5076011;28;20411;-74
2023/04/07 05:09:10;;;;;;;5.63;1.60;;;11.40;99.90;;;;;;5058883;28;20413;-74
2023/04/07 05:11:41;;;;;;;7.60;2.00;;;11.50;99.90;;;;;;5081891;28;20530;-74
2023/04/07 05:14:07;;;;;;;8.18;1.70;;;11.60;99.90;;;;;;5075192;28;20524;-74
2023/04/07 05:16:34;;;;;;;5.53;2.00;;;11.70;99.90;;;;;;5102645;27;20409;-74
2023/04/07 05:19:01;;;;;;;6.07;2.15;;;11.80;99.90;;;;;;5078220;28;20444;-74
2023/04/07 05:21:27;;;;;;;5.57;1.92;;;11.90;99.90;;;;;;5076379;28;20407;-74
2023/04/07 05:23:53;;;;;;;5.57;1.80;;;12.00;99.90;;;;;;5076409;28;20419;-74
2023/04/07 05:26:20;;;;;;;8.35;2.20;;;12.00;99.90;;;;;;5094911;28;20774;-74
2023/04/07 05:28:46;;;;;;;9.20;2.85;;;12.10;99.90;;;;;;5077072;28;20506;-74
2023/04/07 05:31:13;;;;;;;7.97;2.22;;;12.20;99.90;;;;;;5082067;28;20410;-74
2023/04/07 05:33:39;;;;;;;7.40;2.60;;;12.30;99.90;;;;;;5106918;28;20422;-74
2023/04/07 05:36:05;;;;;;;7.75;1.95;;;12.30;99.90;;;;;;5064062;28;20400;-74
2023/04/07 05:38:32;;;;;;;6.87;1.97;;;12.40;99.90;;;;;;5081157;28;20414;-74
2023/04/07 05:40:58;;;;;;;6.45;1.85;;;12.50;99.90;;;;;;5108416;27;20411;-74
2023/04/07 05:43:24;;;;;;;7.20;2.05;;;12.60;99.90;;;;;;5082315;28;20421;-74
2023/04/07 05:45:50;;;;;;;4.60;1.77;;;12.70;99.90;;;;;;5078915;28;20561;-74
2023/04/07 05:48:17;;;;;;;7.35;1.75;;;12.70;99.90;;;;;;5069518;28;20412;-74
2023/04/07 05:50:43;;;;;;;6.25;1.88;;;12.80;99.90;;;;;;5080799;28;20790;-74
2023/04/07 05:53:09;;;;;;;6.97;2.10;;;12.90;99.90;;;;;;5086505;28;20486;-74
2023/04/07 05:55:35;;;;;;;9.35;1.80;;;12.90;99.90;;;;;;5084930;28;20427;-74
2023/04/07 05:58:02;;;;;;;9.20;2.13;;;13.00;99.90;;;;;;5085404;28;21188;-74
2023/04/07 06:00:28;;;;;;;7.78;1.90;;;13.10;99.90;;;;;;5081289;28;20455;-74
2023/04/07 06:02:54;;;;;;;9.52;2.20;;;13.10;99.90;;;;;;5084277;28;20493;-74
2023/04/07 06:05:20;;;;;;;9.38;2.10;;;13.10;99.90;;;;;;5084072;28;20503;-74
2023/04/07 06:07:47;;;;;;;6.17;1.80;;;13.10;99.90;;;;;;5067083;28;21000;-74
2023/04/07 06:10:14;;;;;;;12.23;1.92;;;13.00;99.90;;;;;;5086775;28;20769;-74
2023/04/07 06:12:41;;;;;;;12.73;2.38;;;13.00;99.90;;;;;;5114897;27;20404;-74
2023/04/07 06:15:07;;;;;;;10.48;2.33;;;13.00;99.90;;;;;;5083621;28;20425;-74
2023/04/07 06:17:33;;;;;;;5.90;1.70;;;13.10;99.90;;;;;;5084260;28;20498;-74
2023/04/07 06:19:59;;;;;;;8.75;1.90;;;13.20;99.90;;;;;;5102597;27;20400;-74
2023/04/07 06:22:26;;;;;;;5.90;1.50;;;13.30;99.90;;;;;;5068487;28;20406;-74
2023/04/07 06:24:52;;;;;;;6.53;1.77;;;13.30;99.90;;;;;;5087017;28;20425;-74
2023/04/07 06:27:18;;;;;;;8.80;2.30;;;13.40;99.90;;;;;;5090343;28;20471;-74
2023/04/07 06:29:44;;;;;;;7.78;2.00;;;13.40;99.90;;;;;;5087507;28;20429;-74
2023/04/07 06:32:11;;;;;;;10.45;2.05;;;13.40;99.90;;;;;;5086893;28;20413;-74
2023/04/07 06:34:37;;;;;;;8.02;1.92;;;13.40;99.90;;;;;;5082602;28;20429;-74
2023/04/07 06:37:04;;;;;;;5.35;1.80;;;13.50;99.90;;;;;;5082528;28;20417;-74
2023/04/07 06:39:30;;;;;;;6.40;1.80;;;13.50;99.90;;;;;;5083037;28;20415;-74
2023/04/07 06:41:56;;;;;;;10.50;2.20;;;13.60;99.90;;;;;;5086313;28;20407;-74
2023/04/07 06:44:23;;;;;;;8.55;1.85;;;13.60;99.90;;;;;;5083478;28;20508;-74
2023/04/07 06:46:52;;;;;;;12.73;2.28;;;13.70;99.90;;;;;;5079989;28;20430;-74
2023/04/07 06:49:18;;;;;;;8.27;2.03;;;13.80;99.90;;;;;;5080412;28;20497;-74
2023/04/07 06:51:45;;;;;;;7.60;1.90;;;13.90;99.90;;;;;;5086250;28;20962;-74
2023/04/07 06:54:12;;;;;;;10.55;2.30;;;13.90;99.90;;;;;;5082894;28;20493;-74
2023/04/07 06:56:43;;;;;;;8.80;2.10;;;13.90;99.90;;;;;;5111023;27;20421;-74
2023/04/07 06:59:09;;;;;;;9.70;2.07;;;14.00;99.90;;;;;;5079580;28;20433;-74
2023/04/07 07:01:36;;;;;;;9.18;2.10;;;14.00;99.90;;;;;;5082543;28;20588;-74
2023/04/07 07:04:04;;;;;;;8.80;2.17;;;14.10;99.90;;;;;;5084390;28;20408;-74
2023/04/07 07:06:31;;;;;;;8.35;2.22;;;14.20;99.90;;;;;;5077012;28;20409;-74
2023/04/07 07:08:59;;;;;;;10.02;2.38;;;14.20;99.90;;;;;;5086241;28;21226;-74
2023/04/07 07:11:26;;;;;;;9.63;2.20;;;14.30;99.90;;;;;;5077741;28;20402;-74
2023/04/07 07:13:52;;;;;;;8.80;2.00;;;14.30;99.90;;;;;;5079455;28;20418;-74
2023/04/07 07:16:18;;;;;;;8.95;2.15;;;14.10;99.90;;;;;;5077167;28;20758;-74
2023/04/07 07:18:44;;;;;;;8.95;2.22;;;14.20;99.90;;;;;;5082748;28;20451;-74
2023/04/07 07:21:11;;;;;;;8.13;1.80;;;14.40;99.90;;;;;;5080019;28;20494;-74
2023/04/07 07:23:39;;;;;;;9.27;2.13;;;14.40;99.90;;;;;;5086365;28;20519;-74
2023/04/07 07:26:05;;;;;;;9.27;2.13;;;14.60;99.90;;;;;;5087659;28;20400;-74
2023/04/07 07:28:33;;;;;;;10.55;2.60;;;14.70;99.90;;;;;;5085396;28;20423;-74
2023/04/07 07:31:00;;;;;;;7.68;1.90;;;14.70;99.90;;;;;;5060042;28;20864;-74
2023/04/07 07:33:26;;;;;;;8.05;2.15;;;14.70;99.90;;;;;;5081972;28;20415;-74
2023/04/07 07:35:52;;;;;;;6.97;2.00;;;14.40;99.90;;;;;;5078456;28;20442;-74
2023/04/07 07:38:19;;;;;;;8.73;2.10;;;14.60;99.90;;;;;;5083798;28;20909;-75
2023/04/07 07:40:46;;;;;;;9.90;2.70;;;14.80;99.90;;;;;;5082071;28;20593;-74
2023/04/07 07:43:12;;;;;;;9.52;2.25;;;14.90;99.90;;;;;;5085357;28;21175;-74
2023/04/07 07:45:39;;;;;;;11.63;2.87;;;15.00;99.90;;;;;;5081207;28;21172;-74
2023/04/07 07:48:05;;;;;;;11.10;2.42;;;15.30;99.90;;;;;;5099009;28;20412;-74
2023/04/07 07:50:31;;;;;;;9.10;2.07;;;15.20;99.90;;;;;;5082437;28;20695;-74
2023/04/07 07:52:57;;;;;;;8.18;2.08;;;15.30;99.90;;;;;;5084895;28;20408;-74
2023/04/07 07:55:23;;;;;;;8.65;2.10;;;15.00;99.90;;;;;;5079608;28;20512;-74
2023/04/07 07:57:49;;;;;;;10.32;2.50;;;14.80;99.90;;;;;;5083933;28;20419;-74
2023/04/07 08:00:16;;;;;;;9.05;2.08;;;14.80;99.90;;;;;;5082281;28;20409;-74
2023/04/07 08:02:42;;;;;;;6.07;1.90;;;14.90;99.90;;;;;;5083527;28;20460;-74
2023/04/07 08:05:09;;;;;;;7.65;2.30;;;15.00;99.90;;;;;;5084624;28;20414;-74
2023/04/07 08:07:36;;;;;;;8.50;1.95;;;15.00;99.90;;;;;;5077749;28;20931;-74
2023/04/07 08:10:03;;;;;;;6.75;2.25;;;14.70;99.90;;;;;;5070600;28;20431;-74
2023/04/07 08:12:29;;;;;;;7.97;1.90;;;14.70;99.90;;;;;;5081061;28;20411;-74
2023/04/07 08:14:56;;;;;;;12.15;2.47;;;14.80;99.90;;;;;;5082448;28;20410;-75
2023/04/07 08:17:22;;;;;;;6.25;2.10;;;14.80;99.90;;;;;;5080091;28;20772;-74
2023/04/07 08:19:49;;;;;;;8.30;2.40;;;15.00;99.90;;;;;;5081897;28;20471;-74
2023/04/07 08:22:15;;;;;;;6.45;2.08;;;15.20;99.90;;;;;;5082647;28;20445;-74
2023/04/07 08:24:41;;;;;;;8.38;2.00;;;15.20;99.90;;;;;;5081508;28;20473;-74
2023/04/07 08:27:07;;;;;;;7.50;2.13;;;15.30;99.90;;;;;;5081287;28;20398;-75
2023/04/07 08:29:34;;;;;;;6.50;2.08;;;15.50;99.90;;;;;;5092296;27;20420;-75
2023/04/07 08:32:00;;;;;;;7.28;1.90;;;15.70;99.90;;;;;;5082816;28;20442;-75
2023/04/07 08:34:26;;;;;;;7.82;1.95;;;15.70;99.90;;;;;;5078286;28;20411;-75
2023/04/07 08:36:52;;;;;;;7.93;1.90;;;16.10;99.90;;;;;;5075874;28;20399;-74
2023/04/07 08:39:19;;;;;;;6.93;1.80;;;15.70;99.90;;;;;;5096726;27;20425;-74
2023/04/07 08:41:49;;;;;;;6.18;1.80;;;15.70;99.90;;;;;;5110102;27;20413;-75
2023/04/07 08:44:16;;;;;;;5.90;1.83;;;15.90;99.90;;;;;;5083121;28;20493;-75
2023/04/07 08:46:45;;;;;;;6.53;1.92;;;16.20;99.90;;;;;;5084284;28;20754;-74
2023/04/07 08:49:12;;;;;;;7.75;2.00;;;16.40;99.90;;;;;;5078028;28;20482;-74
2023/04/07 08:51:46;;;;;;;6.00;1.83;;;16.60;99.90;;;;;;5079315;28;20406;-75
2023/04/07 08:54:17;;;;;;;5.37;1.63;;;16.60;99.90;;;;;;5081328;28;20408;-74
2023/04/07 08:56:44;;;;;;;10.47;2.57;;;16.80;99.90;;;;;;5088384;28;20428;-75
2023/04/07 08:59:14;;;;;;;8.02;2.28;;;16.90;99.90;;;;;;5085784;28;20414;-75
2023/04/07 09:01:41;;;;;;;8.13;2.13;;;17.00;99.90;;;;;;5076901;28;20412;-75
2023/04/07 09:04:09;;;;;;;6.93;1.92;;;16.90;99.90;;;;;;5059446;28;20414;-75
2023/04/07 09:06:37;;;;;;;6.53;2.00;;;17.10;99.90;;;;;;5075810;28;20414;-75
2023/04/07 09:09:06;;;;;;;7.15;2.03;;;17.20;99.90;;;;;;5080136;28;20516;-75
2023/04/07 09:11:38;;;;;;;5.38;1.60;;;17.30;99.90;;;;;;5072341;28;20409;-74
2023/04/07 09:14:06;;;;;;;6.40;1.65;;;17.30;99.90;;;;;;5089349;28;20420;-75
2023/04/07 09:16:32;;;;;;;5.22;1.60;;;17.30;99.90;;;;;;5072753;28;20792;-74
2023/04/07 09:18:59;;;;;;;7.90;1.55;;;16.70;99.90;;;;;;5081642;28;20408;-74
2023/04/07 09:21:26;;;;;;;6.35;1.90;;;16.20;99.90;;;;;;5075192;28;20919;-74
2023/04/07 09:23:52;;;;;;;6.85;1.80;;;16.20;99.90;;;;;;5078293;28;20404;-74
2023/04/07 09:26:26;;;;;;;8.98;1.70;;;16.10;99.90;;;;;;5077420;28;21272;-74
2023/04/07 09:29:03;;;;;;;5.30;1.55;;;15.90;99.90;;;;;;5083148;28;20503;-74
2023/04/07 09:31:54;;;;;;;5.70;1.52;;;15.90;99.90;;;;;;5061418;28;20418;-74
2023/04/07 09:34:27;;;;;;;7.28;1.75;;;16.00;99.90;;;;;;5079225;28;20428;-74
2023/04/07 09:36:54;;;;;;;6.32;1.70;;;16.30;99.90;;;;;;5078996;28;20805;-74
2023/04/07 09:39:20;;;;;;;4.33;1.60;;;16.50;99.90;;;;;;5083406;28;20919;-74
2023/04/07 09:41:47;;;;;;;4.22;1.30;;;16.50;99.90;;;;;;5083560;28;20433;-74
2023/04/07 09:44:16;;;;;;;7.22;1.77;;;16.70;99.90;;;;;;5084540;28;20417;-74
2023/04/07 09:47:09;;;;;;;7.28;1.70;;;17.00;99.90;;;;;;5075905;28;20421;-74
2023/04/07 09:49:53;;;;;;;6.80;2.00;;;17.20;99.90;;;;;;5077858;28;20464;-74
2023/04/07 09:52:25;;;;;;;6.95;1.70;;;17.30;99.90;;;;;;5073040;28;20419;-74
2023/04/07 09:54:54;;;;;;;7.63;1.85;;;17.50;99.90;;;;;;5099017;28;20481;-74
2023/04/07 09:57:22;;;;;;;7.25;1.65;;;17.20;99.90;;;;;;5098682;28;20406;-74
2023/04/07 09:59:51;;;;;;;8.52;1.83;;;16.90;99.90;;;;;;5080188;28;20774;-74
2023/04/07 10:02:17;;;;;;;7.45;1.73;;;17.00;99.90;;;;;;5076495;28;20479;-75
2023/04/07 10:04:43;;;;;;;9.17;1.70;;;17.30;99.90;;;;;;5079205;28;20473;-74
2023/04/07 10:07:10;;;;;;;6.65;1.58;;;17.50;99.90;;;;;;5082511;28;20427;-74
2023/04/07 10:09:36;;;;;;;6.35;1.63;;;18.10;99.90;;;;;;5085563;28;20479;-74
2023/04/07 10:12:03;;;;;;;4.50;1.40;;;17.80;99.90;;;;;;5075936;28;20997;-74
2023/04/07 10:14:34;;;;;;;7.82;1.85;;;17.70;99.90;;;;;;5080865;28;20488;-75
2023/04/07 10:17:02;;;;;;;5.27;1.37;;;17.50;99.90;;;;;;5084515;28;20953;-75
2023/04/07 10:19:34;;;;;;;7.30;1.85;;;17.60;99.90;;;;;;5077695;28;20504;-75
2023/04/07 10:22:04;;;;;;;7.57;1.83;;;17.60;99.90;;;;;;5078910;28;20413;-74
2023/04/07 10:24:53;;;;;;;9.55;2.00;;;17.80;99.90;;;;;;5081841;28;20429;-74
2023/04/07 10:27:31;;;;;;;6.50;1.60;;;18.00;99.90;;;;;;5083141;28;20978;-74
2023/04/07 10:30:00;;;;;;;8.25;1.98;;;17.50;99.90;;;;;;5085061;28;20449;-74
2023/04/07 10:32:26;;;;;;;7.95;1.80;;;17.20;99.90;;;;;;5101455;27;20918;-74
2023/04/07 10:34:53;;;;;;;8.07;1.95;;;17.20;99.90;;;;;;5077765;28;20510;-74
2023/04/07 10:37:21;;;;;;;9.23;2.17;;;17.20;99.90;;;;;;5076222;28;20442;-74
2023/04/07 10:39:49;;;;;;;5.75;1.70;;;17.10;99.90;;;;;;5082574;28;20435;-74
2023/04/07 10:42:37;;;;;;;6.00;1.85;;;17.20;99.90;;;;;;5078359;28;21386;-74
2023/04/07 10:45:06;;;;;;;6.93;1.73;;;16.90;99.90;;;;;;5082016;28;20747;-74
2023/04/07 10:47:33;;;;;;;7.90;1.63;;;16.60;99.90;;;;;;5080159;28;20439;-74
2023/04/07 10:50:20;;;;;;;7.60;2.00;;;16.50;99.90;;;;;;5083541;28;20444;-74
2023/04/07 10:52:49;;;;;;;11.00;2.35;;;16.40;99.90;;;;;;5093826;27;20445;-74
2023/04/07 10:55:38;;;;;;;6.95;1.80;;;16.20;99.90;;;;;;5066534;28;20467;-74
2023/04/07 10:58:25;;;;;;;6.55;1.65;;;16.10;99.90;;;;;;5104544;27;20407;-74
2023/04/07 11:01:11;;;;;;;7.60;1.70;;;16.10;99.90;;;;;;5073757;28;20491;-74
2023/04/07 11:03:41;;;;;;;6.20;1.77;;;16.00;99.90;;;;;;5084742;28;20422;-74
2023/04/07 11:06:13;;;;;;;7.40;1.95;;;16.00;99.90;;;;;;5091853;28;21201;-74
2023/04/07 11:08:45;;;;;;;8.60;1.63;;;15.90;99.90;;;;;;5078827;28;20437;-74
2023/04/07 11:11:14;;;;;;;6.45;1.80;;;15.90;99.90;;;;;;5081322;28;20432;-74
2023/04/07 11:13:48;;;;;;;7.97;1.90;;;15.90;99.90;;;;;;5084198;28;20407;-74
2023/04/07 11:16:18;;;;;;;8.13;1.92;;;15.90;99.90;;;;;;5079240;28;20435;-74
2023/04/07 11:18:46;;;;;;;7.47;1.63;;;15.90;99.90;;;;;;5092755;27;20411;-74
2023/04/07 11:21:18;;;;;;;7.15;2.00;;;15.80;99.90;;;;;;5081498;28;20781;-74
2023/04/07 11:23:46;;;;;;;6.50;1.70;;;15.70;99.90;;;;;;5079230;28;20421;-74
2023/04/07 11:26:14;;;;;;;8.13;1.83;;;15.70;99.90;;;;;;5090789;28;20413;-74
2023/04/07 11:28:49;;;;;;;8.25;2.10;;;15.70;99.90;;;;;;5080290;28;20500;-74
2023/04/07 11:31:30;;;;;;;9.32;1.92;;;15.70;99.90;;;;;;5075814;28;20414;-74
2023/04/07 11:34:03;;;;;;;7.28;1.92;;;15.70;99.90;;;;;;5107341;27;20413;-74
2023/04/07 11:36:40;;;;;;;9.90;1.80;;;15.60;99.90;;;;;;5083609;28;20488;-74
2023/04/07 11:39:21;;;;;;;7.80;1.80;;;15.60;99.90;;;;;;5077385;28;20476;-74
2023/04/07 11:41:49;;;;;;;7.60;2.10;;;15.70;99.90;;;;;;5085065;28;20971;-74
2023/04/07 11:44:16;;;;;;;6.53;1.70;;;15.80;99.90;;;;;;5081077;28;20851;-74
2023/04/07 11:47:04;;;;;;;7.05;2.15;;;16.00;99.90;;;;;;5083829;28;20423;-74
2023/04/07 11:49:31;;;;;;;6.60;2.50;;;15.90;99.90;;;;;;5093289;27;21021;-74
2023/04/07 11:52:04;;;;;;;6.47;1.65;;;15.70;99.90;;;;;;5077705;28;20446;-74
2023/04/07 11:54:46;;;;;;;9.73;2.22;;;15.70;99.90;;;;;;5077739;28;20945;-74
2023/04/07 11:57:22;;;;;;;6.60;1.80;;;15.90;99.90;;;;;;5094966;27;20430;-74
2023/04/07 11:59:48;;;;;;;5.63;1.80;;;15.90;99.90;;;;;;5080880;28;20846;-74
2023/04/07 12:02:32;;;;;;;7.97;1.60;;;16.00;99.90;;;;;;5071492;28;20497;-74
2023/04/07 12:04:58;;;;;;;8.40;2.08;;;16.10;99.90;;;;;;5079355;28;20457;-74
2023/04/07 12:07:25;;;;;;;5.78;1.80;;;16.30;99.90;;;;;;5078462;28;20957;-75
2023/04/07 12:09:53;;;;;;;9.00;1.70;;;16.30;99.90;;;;;;5067815;28;20415;-74
2023/04/07 12:12:32;;;;;;;6.65;1.60;;;16.30;99.90;;;;;;5103281;27;20406;-74
2023/04/07 12:14:58;;;;;;;6.93;1.90;;;16.40;99.90;;;;;;5070318;28;20480;-74
2023/04/07 12:17:26;;;;;;;7.82;1.65;;;16.40;99.90;;;;;;5085023;28;20446;-74
2023/04/07 12:19:52;;;;;;;4.93;1.50;;;16.50;99.90;;;;;;5104779;27;20460;-74
2023/04/07 12:22:19;;;;;;;7.95;1.83;;;16.50;99.90;;;;;;5075422;28;20402;-75
2023/04/07 12:24:45;;;;;;;5.20;1.63;;;16.50;99.90;;;;;;5105172;27;20806;-75
2023/04/07 12:27:12;;;;;;;5.78;1.60;;;16.20;99.90;;;;;;5078599;28;20404;-74
2023/04/07 12:29:38;;;;;;;7.13;1.70;;;16.30;99.90;;;;;;5079691;28;20407;-74
2023/04/07 12:32:04;;;;;;;6.32;1.73;;;16.30;99.90;;;;;;5079541;28;20399;-74
2023/04/07 12:34:36;;;;;;;9.52;1.75;;;16.20;99.90;;;;;;5061724;28;20433;-74
2023/04/07 12:37:02;;;;;;;5.82;1.70;;;16.20;99.90;;;;;;5104173;27;20473;-74
2023/04/07 12:39:28;;;;;;;7.90;1.73;;;16.20;99.90;;;;;;5076828;28;20414;-74
2023/04/07 12:41:57;;;;;;;5.20;1.50;;;16.20;99.90;;;;;;5082665;28;21089;-74
2023/04/07 12:44:23;;;;;;;9.10;1.90;;;16.20;99.90;;;;;;5079724;28;20410;-74
2023/04/07 12:46:49;;;;;;;8.02;1.52;;;16.40;99.90;;;;;;5086764;28;20416;-74
2023/04/07 12:49:15;;;;;;;6.45;1.60;;;16.40;99.90;;;;;;5086037;28;20512;-74
2023/04/07 12:51:41;;;;;;;6.07;1.70;;;16.30;99.90;;;;;;5084809;28;20792;-74
2023/04/07 12:54:08;;;;;;;3.72;1.33;;;16.30;99.90;;;;;;5082418;28;20423;-74